createdAt,value
2018-05-13T00:01:20.819Z,43.40
2018-05-13T00:03:48.299Z,43.40
2018-05-13T00:06:15.703Z,45.00
2018-05-13T00:11:12.133Z,47.80
2018-05-13T00:13:40.229Z,47.60
2018-05-13T00:16:07.567Z,46.50
2018-05-13T00:18:34.976Z,46.40
2018-05-13T00:21:02.312Z,46.70
2018-05-13T00:23:29.676Z,48.50
2018-05-13T00:25:57.029Z,48.90
2018-05-13T00:33:21.999Z,47.90
2018-05-13T00:35:49.386Z,49.00
2018-05-13T00:38:16.824Z,49.30
2018-05-13T00:40:44.203Z,50.50
2018-05-13T00:43:12.358Z,51.40
2018-05-13T00:45:40.467Z,51.40
2018-05-13T00:48:07.807Z,52.00
2018-05-13T00:53:03.431Z,53.00
2018-05-13T00:55:31.543Z,53.60
2018-05-13T00:57:59.657Z,53.70
2018-05-13T01:00:27.074Z,54.10
2018-05-13T01:02:55.194Z,53.70
2018-05-13T01:05:22.574Z,54.00
2018-05-13T01:10:18.312Z,54.50
2018-05-13T01:15:14.716Z,54.60
2018-05-13T01:17:42.835Z,54.00
2018-05-13T01:20:10.230Z,52.40
2018-05-13T01:22:38.348Z,51.50
2018-05-13T01:25:05.687Z,52.00
2018-05-13T01:27:33.051Z,52.90
2018-05-13T01:30:00.447Z,54.00
2018-05-13T01:34:56.127Z,54.50
2018-05-13T01:37:23.438Z,53.90
2018-05-13T01:39:51.547Z,53.10
2018-05-13T01:42:19.593Z,53.50
2018-05-13T01:44:46.983Z,52.10
2018-05-13T01:47:15.179Z,50.10
2018-05-13T01:49:42.481Z,49.20
2018-05-13T01:52:10.699Z,48.20
2018-05-13T01:54:37.983Z,47.80
2018-05-13T01:57:06.045Z,49.10
2018-05-13T01:59:33.463Z,49.60
2018-05-13T02:04:29.848Z,48.80
2018-05-13T02:06:57.354Z,47.90
2018-05-13T02:11:52.961Z,49.00
2018-05-13T02:14:21.020Z,47.90
2018-05-13T02:19:16.561Z,47.40
2018-05-13T02:21:43.870Z,48.60
2018-05-13T02:24:11.179Z,48.00
2018-05-13T02:26:38.499Z,47.30
2018-05-13T02:29:05.808Z,46.30
2018-05-13T02:31:33.840Z,46.30
2018-05-13T02:34:01.211Z,48.30
2018-05-13T02:36:29.241Z,49.30
2018-05-13T02:41:24.772Z,48.00
2018-05-13T02:43:52.111Z,47.80
2018-05-13T02:46:20.182Z,47.20
2018-05-13T02:48:47.511Z,48.90
2018-05-13T02:51:15.526Z,48.20
2018-05-13T02:56:11.890Z,46.50
2018-05-13T02:58:39.911Z,46.50
2018-05-13T03:01:07.959Z,47.10
2018-05-13T03:03:36.018Z,47.50
2018-05-13T03:06:03.500Z,47.30
2018-05-13T03:08:30.856Z,46.90
2018-05-13T03:10:59.039Z,46.30
2018-05-13T03:13:26.348Z,45.70
2018-05-13T03:15:54.377Z,45.50
2018-05-13T03:18:21.678Z,45.20
2018-05-13T03:20:49.030Z,45.20
2018-05-13T03:23:16.371Z,45.20
2018-05-13T03:25:43.678Z,45.00
2018-05-13T03:30:39.355Z,44.20
2018-05-13T03:33:06.772Z,45.00
2018-05-13T03:38:03.015Z,45.20
2018-05-13T03:40:30.544Z,45.20
2018-05-13T03:42:58.662Z,45.00
2018-05-13T03:47:54.296Z,44.50
2018-05-13T03:50:22.327Z,45.00
2018-05-13T03:52:50.405Z,44.90
2018-05-13T04:00:14.161Z,48.30
2018-05-13T04:02:41.459Z,47.90
2018-05-13T04:05:09.521Z,46.50
2018-05-13T04:10:47.863Z,45.50
2018-05-13T04:15:50.128Z,44.40
2018-05-13T04:18:17.428Z,44.10
2018-05-13T04:23:13.035Z,45.10
2018-05-13T04:25:40.510Z,46.10
2018-05-13T04:28:07.818Z,46.30
2018-05-13T04:30:35.107Z,45.30
2018-05-13T04:33:02.454Z,45.10
2018-05-13T04:35:29.733Z,43.90
2018-05-13T04:37:57.791Z,44.80
2018-05-13T04:42:54.078Z,46.60
2018-05-13T04:45:21.579Z,47.90
2018-05-13T04:47:48.928Z,47.10
2018-05-13T04:50:16.208Z,47.70
2018-05-13T04:55:11.750Z,46.30
2018-05-13T04:57:39.778Z,46.10
2018-05-13T05:00:07.779Z,44.80
2018-05-13T05:05:03.302Z,44.30
2018-05-13T05:09:58.942Z,43.60
2018-05-13T05:14:54.479Z,43.00
2018-05-13T05:19:49.996Z,42.60
2018-05-13T05:24:46.478Z,42.40
2018-05-13T05:27:13.794Z,42.40
2018-05-13T05:29:41.142Z,42.40
2018-05-13T05:34:37.420Z,42.00
2018-05-13T05:37:04.787Z,41.90
2018-05-13T05:39:32.921Z,41.70
2018-05-13T05:42:00.308Z,41.50
2018-05-13T05:44:27.612Z,41.30
2018-05-13T05:46:55.683Z,41.10
2018-05-13T05:49:23.162Z,41.00
2018-05-13T05:51:51.184Z,41.10
2018-05-13T05:54:19.231Z,40.90
2018-05-13T05:56:46.539Z,41.90
2018-05-13T06:01:42.889Z,43.70
2018-05-13T06:06:39.107Z,42.70
2018-05-13T06:09:07.296Z,42.20
2018-05-13T06:11:34.603Z,42.00
2018-05-13T06:14:02.352Z,43.00
2018-05-13T06:16:29.577Z,43.30
2018-05-13T06:18:56.895Z,42.90
2018-05-13T06:21:24.938Z,42.50
2018-05-13T06:26:22.455Z,41.50
2018-05-13T06:28:50.681Z,41.50
2018-05-13T06:31:18.727Z,40.90
2018-05-13T06:36:14.393Z,41.20
2018-05-13T06:38:41.699Z,43.00
2018-05-13T06:41:09.047Z,44.30
2018-05-13T06:46:04.696Z,43.70
2018-05-13T06:48:32.003Z,42.80
2018-05-13T06:51:00.129Z,43.30
2018-05-13T06:53:27.421Z,42.90
2018-05-13T06:55:55.062Z,42.40
2018-05-13T06:58:22.443Z,42.10
2018-05-13T07:03:18.154Z,41.50
2018-05-13T07:05:46.219Z,41.30
2018-05-13T07:08:13.516Z,42.00
2018-05-13T07:10:40.855Z,43.10
2018-05-13T07:13:08.176Z,43.60
2018-05-13T07:18:03.975Z,42.50
2018-05-13T07:20:31.331Z,42.20
2018-05-13T07:22:59.402Z,42.70
2018-05-13T07:27:55.077Z,41.30
2018-05-13T07:30:22.400Z,40.70
2018-05-13T07:35:18.099Z,40.20
2018-05-13T07:37:46.150Z,40.00
2018-05-13T07:40:13.466Z,39.80
2018-05-13T07:42:40.795Z,39.70
2018-05-13T07:45:08.205Z,39.90
2018-05-13T07:47:35.503Z,40.00
2018-05-13T07:50:03.046Z,40.20
2018-05-13T07:52:30.338Z,40.50
2018-05-13T07:54:58.456Z,40.60
2018-05-13T07:57:25.782Z,40.50
2018-05-13T07:59:53.333Z,40.40
2018-05-13T08:02:20.722Z,40.50
2018-05-13T08:04:48.833Z,41.20
2018-05-13T08:12:12.687Z,40.80
2018-05-13T08:14:40.823Z,41.00
2018-05-13T08:22:04.692Z,42.30
2018-05-13T08:27:00.416Z,45.60
2018-05-13T08:29:27.714Z,47.20
2018-05-13T08:31:55.088Z,46.40
2018-05-13T08:36:50.666Z,45.90
2018-05-13T08:39:17.956Z,44.80
2018-05-13T08:41:46.034Z,43.70
2018-05-13T08:46:41.815Z,47.80
2018-05-13T08:49:09.855Z,47.30
2018-05-13T08:51:37.917Z,46.30
2018-05-13T08:54:06.037Z,45.20
2018-05-13T08:59:01.886Z,44.90
2018-05-13T09:01:29.938Z,43.70
2018-05-13T09:03:57.286Z,45.10
2018-05-13T09:06:24.763Z,44.10
2018-05-13T09:11:20.323Z,42.60
2018-05-13T09:13:47.663Z,42.50
2018-05-13T09:16:15.687Z,43.00
2018-05-13T09:18:43.048Z,42.50
2018-05-13T09:23:38.727Z,42.20
2018-05-13T09:26:06.135Z,41.90
2018-05-13T09:28:34.207Z,41.70
2018-05-13T09:31:01.499Z,41.20
2018-05-13T09:33:29.715Z,40.80
2018-05-13T09:35:56.990Z,39.80
2018-05-13T09:38:24.318Z,39.50
2018-05-13T09:40:51.640Z,39.60
2018-05-13T09:43:19.707Z,39.70
2018-05-13T09:48:15.251Z,39.90
2018-05-13T09:50:43.372Z,40.50
2018-05-13T09:53:11.341Z,41.10
2018-05-13T09:55:38.674Z,41.10
2018-05-13T10:00:34.662Z,41.30
2018-05-13T10:03:02.728Z,41.30
2018-05-13T10:07:59.022Z,41.80
2018-05-13T10:10:26.360Z,41.80
2018-05-13T10:12:54.464Z,42.00
2018-05-13T10:15:21.816Z,42.20
2018-05-13T10:20:17.478Z,42.80
2018-05-13T10:25:13.785Z,43.40
2018-05-13T10:30:09.396Z,43.80
2018-05-13T10:32:36.748Z,43.70
2018-05-13T10:35:04.164Z,43.70
2018-05-13T10:37:31.533Z,43.30
2018-05-13T10:42:27.157Z,43.10
2018-05-13T10:44:54.537Z,43.00
2018-05-13T10:47:22.003Z,43.30
2018-05-13T10:52:17.592Z,43.00
2018-05-13T10:54:45.151Z,42.80
2018-05-13T10:57:13.201Z,42.80
2018-05-13T11:02:08.828Z,42.70
2018-05-13T11:04:37.332Z,42.60
2018-05-13T11:07:05.368Z,42.60
2018-05-13T11:09:32.712Z,42.50
2018-05-13T11:12:00.844Z,42.50
2018-05-13T11:16:57.155Z,42.80
2018-05-13T11:19:25.247Z,42.60
2018-05-13T11:24:21.179Z,42.40
2018-05-13T11:29:17.486Z,41.60
2018-05-13T11:31:44.916Z,41.30
2018-05-13T11:34:13.005Z,41.00
2018-05-13T11:41:37.612Z,40.60
2018-05-13T11:44:05.744Z,40.40
2018-05-13T11:46:33.150Z,40.20
2018-05-13T11:51:28.853Z,40.00
2018-05-13T11:56:24.409Z,40.40
2018-05-13T11:58:52.533Z,40.40
2018-05-13T12:03:48.107Z,40.40
2018-05-13T12:06:16.152Z,40.30
2018-05-13T12:08:44.396Z,40.20
2018-05-13T12:11:11.707Z,40.20
2018-05-13T12:16:07.343Z,40.50
2018-05-13T12:18:34.621Z,40.50
2018-05-13T12:21:02.057Z,40.50
2018-05-13T12:25:58.291Z,40.00
2018-05-13T12:28:26.445Z,39.50
2018-05-13T12:38:20.557Z,39.60
2018-05-13T12:43:16.090Z,39.80
2018-05-13T12:45:44.463Z,39.70
2018-05-13T12:48:11.786Z,39.90
2018-05-13T12:53:07.322Z,39.60
2018-05-13T12:58:02.928Z,39.40
2018-05-13T13:00:30.250Z,39.60
2018-05-13T13:02:58.330Z,39.80
2018-05-13T13:05:25.621Z,39.70
2018-05-13T13:07:52.900Z,39.50
2018-05-13T13:10:20.423Z,39.10
2018-05-13T13:15:16.362Z,39.00
2018-05-13T13:17:44.499Z,39.00
2018-05-13T13:22:40.113Z,39.50
2018-05-13T13:25:07.615Z,39.70
2018-05-13T13:27:34.933Z,38.90
2018-05-13T13:30:03.335Z,37.80
2018-05-13T13:32:30.636Z,37.30
2018-05-13T13:37:27.073Z,38.60
2018-05-13T13:39:54.395Z,37.80
2018-05-13T13:42:22.455Z,36.80
2018-05-13T13:44:50.535Z,36.20
2018-05-13T13:47:17.863Z,36.40
2018-05-13T13:49:45.905Z,36.10
2018-05-13T13:52:13.297Z,36.30
2018-05-13T13:57:08.832Z,37.10
2018-05-13T14:02:04.424Z,38.10
2018-05-13T14:04:32.751Z,38.60
2018-05-13T14:07:00.251Z,38.70
2018-05-13T14:09:28.375Z,39.60
2018-05-13T14:11:55.719Z,39.40
2018-05-13T14:14:23.155Z,39.30
2018-05-13T14:16:50.564Z,39.70
2018-05-13T14:21:46.183Z,40.10
2018-05-13T14:24:14.359Z,39.80
2018-05-13T14:26:42.491Z,39.70
2018-05-13T14:29:09.829Z,39.60
2018-05-13T14:31:37.283Z,39.40
2018-05-13T14:34:05.370Z,39.40
2018-05-13T14:36:32.712Z,39.80
2018-05-13T14:39:00.101Z,40.00
2018-05-13T14:43:55.678Z,40.10
2018-05-13T14:46:23.023Z,40.10
2018-05-13T14:48:51.337Z,40.00
2018-05-13T14:51:18.677Z,40.60
2018-05-13T14:53:46.315Z,40.50
2018-05-13T14:58:41.902Z,40.90
2018-05-13T15:01:09.336Z,40.70
2018-05-13T15:06:04.990Z,40.80
2018-05-13T15:08:33.043Z,40.80
2018-05-13T15:11:00.392Z,41.10
2018-05-13T15:13:27.718Z,41.20
2018-05-13T15:16:00.443Z,41.10
2018-05-13T15:18:28.644Z,41.00
2018-05-13T15:23:28.108Z,41.00
2018-05-13T15:25:59.995Z,40.90
2018-05-13T15:28:30.524Z,40.80
2018-05-13T15:33:32.290Z,40.50
2018-05-13T15:35:59.655Z,40.20
2018-05-13T15:38:29.606Z,40.10
2018-05-13T15:43:34.694Z,40.10
2018-05-13T15:46:06.578Z,40.00
2018-05-13T15:48:41.608Z,40.20
2018-05-13T15:53:38.973Z,40.40
2018-05-13T15:58:35.339Z,40.50
2018-05-13T16:01:04.584Z,40.60
2018-05-13T16:03:32.786Z,40.60
2018-05-13T16:06:00.131Z,41.10
2018-05-13T16:08:31.864Z,41.40
2018-05-13T16:11:00.403Z,41.40
2018-05-13T16:13:33.116Z,41.50
2018-05-13T16:16:02.961Z,41.40
2018-05-13T16:18:37.966Z,41.40
2018-05-13T16:21:13.887Z,40.50
2018-05-13T16:23:48.373Z,41.60
2018-05-13T16:26:23.384Z,41.80
2018-05-13T16:28:58.740Z,42.30
2018-05-13T16:31:30.994Z,41.80
2018-05-13T16:34:00.091Z,41.30
2018-05-13T16:36:32.231Z,40.70
2018-05-13T16:39:04.603Z,42.40
2018-05-13T16:41:37.298Z,43.60
2018-05-13T16:44:06.464Z,43.70
2018-05-13T16:46:35.291Z,42.90
2018-05-13T16:49:02.565Z,43.20
2018-05-13T16:51:30.958Z,42.90
2018-05-13T16:54:00.809Z,42.60
2018-05-13T16:56:30.939Z,43.60
2018-05-13T16:59:00.849Z,43.80
2018-05-13T17:01:30.833Z,43.50
2018-05-13T17:04:00.154Z,43.30
2018-05-13T17:06:28.226Z,42.90
2018-05-13T17:08:56.530Z,41.60
2018-05-13T17:11:28.148Z,42.30
2018-05-13T17:13:57.438Z,42.90
2018-05-13T17:16:28.535Z,42.70
2018-05-13T17:18:57.782Z,41.70
2018-05-13T17:24:05.872Z,42.20
2018-05-13T17:26:33.314Z,42.00
2018-05-13T17:29:04.138Z,41.90
2018-05-13T17:31:32.151Z,41.40
2018-05-13T17:34:00.584Z,42.30
2018-05-13T17:36:28.918Z,41.90
2018-05-13T17:38:58.845Z,41.50
2018-05-13T17:41:27.980Z,40.60
2018-05-13T17:43:56.253Z,41.40
2018-05-13T17:46:25.099Z,42.20
2018-05-13T17:48:53.277Z,42.10
2018-05-13T17:51:21.536Z,42.20
2018-05-13T17:53:51.649Z,41.80
2018-05-13T17:56:20.033Z,41.70
2018-05-13T17:58:52.000Z,42.00
2018-05-13T18:01:20.031Z,42.10
2018-05-13T18:03:52.973Z,41.70
2018-05-13T18:06:22.365Z,41.90
2018-05-13T18:08:49.612Z,42.10
2018-05-13T18:11:17.770Z,41.10
2018-05-13T18:13:45.024Z,42.40
2018-05-13T18:16:17.092Z,43.90
2018-05-13T18:18:47.178Z,43.30
2018-05-13T18:21:16.063Z,43.10
2018-05-13T18:23:46.967Z,42.20
2018-05-13T18:26:14.959Z,41.90
2018-05-13T18:28:47.683Z,42.10
2018-05-13T18:31:17.915Z,42.30
2018-05-13T18:33:51.742Z,42.40
2018-05-13T18:36:20.777Z,43.70
2018-05-13T18:38:49.801Z,43.10
2018-05-13T18:41:17.395Z,42.80
2018-05-13T18:43:44.808Z,42.00
2018-05-13T18:46:13.015Z,42.30
2018-05-13T18:48:46.139Z,42.80
2018-05-13T18:51:15.896Z,42.40
2018-05-13T18:53:44.947Z,42.30
2018-05-13T18:56:13.875Z,42.30
2018-05-13T18:58:43.912Z,42.10
2018-05-13T19:01:11.195Z,41.70
2018-05-13T19:03:39.217Z,42.00
2018-05-13T19:06:11.908Z,43.60
2018-05-13T19:08:43.939Z,43.50
2018-05-13T19:11:12.349Z,43.70
2018-05-13T19:13:42.418Z,43.90
2018-05-13T19:16:18.278Z,43.80
2018-05-13T19:18:50.339Z,43.90
2018-05-13T19:21:18.754Z,43.80
2018-05-13T19:23:47.010Z,43.50
2018-05-13T19:26:15.282Z,43.90
2018-05-13T19:28:43.320Z,44.20
2018-05-13T19:31:12.992Z,44.10
2018-05-13T19:33:42.120Z,44.70
2018-05-13T19:36:17.061Z,45.30
2018-05-13T19:38:46.323Z,44.60
2018-05-13T19:41:16.730Z,46.60
2018-05-13T19:43:44.080Z,46.40
2018-05-13T19:46:15.802Z,44.90
2018-05-13T19:48:43.915Z,46.00
2018-05-13T19:51:13.471Z,45.70
2018-05-13T19:53:41.022Z,45.80
2018-05-13T19:56:11.567Z,45.70
2018-05-13T19:58:41.263Z,45.30
2018-05-13T20:01:09.627Z,45.60
2018-05-13T20:03:40.939Z,45.70
2018-05-13T20:06:09.155Z,45.80
2018-05-13T20:08:38.556Z,45.70
2018-05-13T20:11:06.146Z,46.20
2018-05-13T20:13:35.473Z,45.90
2018-05-13T20:16:05.457Z,45.60
2018-05-13T20:18:32.847Z,45.60
2018-05-13T20:21:00.062Z,45.70
2018-05-13T20:23:27.491Z,44.60
2018-05-13T20:25:55.641Z,46.40
2018-05-13T20:28:23.083Z,46.50
2018-05-13T20:30:51.136Z,48.10
2018-05-13T20:33:23.962Z,50.30
2018-05-13T20:35:54.947Z,53.60
2018-05-13T20:38:25.031Z,58.10
2018-05-13T20:40:53.931Z,61.10
2018-05-13T20:43:24.615Z,64.20
2018-05-13T20:45:55.515Z,59.50
2018-05-13T20:48:24.520Z,57.30
2018-05-13T20:50:51.773Z,54.80
2018-05-13T20:53:21.009Z,55.20
2018-05-13T20:55:50.987Z,51.60
2018-05-13T20:58:21.035Z,51.70
2018-05-13T21:00:51.132Z,50.80
2018-05-13T21:03:18.423Z,50.10
2018-05-13T21:05:47.602Z,50.10
2018-05-13T21:08:15.039Z,53.10
2018-05-13T21:10:43.235Z,54.70
2018-05-13T21:13:12.159Z,55.60
2018-05-13T21:15:39.426Z,55.50
2018-05-13T21:18:06.644Z,53.20
2018-05-13T21:20:34.710Z,52.00
2018-05-13T21:23:03.873Z,50.70
2018-05-13T21:25:33.733Z,50.00
2018-05-13T21:28:02.877Z,49.20
2018-05-13T21:30:30.202Z,49.60
2018-05-13T21:33:00.106Z,49.10
2018-05-13T21:35:31.346Z,49.00
2018-05-13T21:38:00.516Z,48.90
2018-05-13T21:40:28.703Z,47.90
2018-05-13T21:42:56.158Z,47.80
2018-05-13T21:45:23.399Z,47.80
2018-05-13T21:47:50.756Z,48.10
2018-05-13T21:50:22.614Z,48.00
2018-05-13T21:52:54.294Z,49.00
2018-05-13T21:55:25.436Z,48.80
2018-05-13T21:57:54.617Z,48.40
2018-05-13T22:00:23.616Z,48.40
2018-05-13T22:02:50.840Z,48.40
2018-05-13T22:05:19.117Z,48.10
2018-05-13T22:07:48.786Z,48.40
2018-05-13T22:10:21.787Z,47.90
2018-05-13T22:12:49.949Z,48.10
2018-05-13T22:15:17.299Z,47.40
2018-05-13T22:17:45.265Z,47.90
2018-05-13T22:20:15.083Z,48.30
2018-05-13T22:22:45.850Z,49.00
2018-05-13T22:25:18.837Z,49.70
2018-05-13T22:27:48.731Z,51.60
2018-05-13T22:30:16.019Z,52.70
2018-05-13T22:32:43.851Z,52.60
2018-05-13T22:35:11.146Z,51.00
2018-05-13T22:37:38.738Z,53.60
2018-05-13T22:40:06.839Z,52.30
2018-05-13T22:42:34.060Z,51.70
2018-05-13T22:45:02.216Z,50.70
2018-05-13T22:47:29.501Z,50.60
2018-05-13T22:49:56.739Z,49.60
2018-05-13T22:54:52.066Z,49.10
2018-05-13T22:57:19.997Z,51.00
2018-05-13T22:59:47.178Z,52.60
2018-05-13T23:02:15.219Z,52.30
2018-05-13T23:04:42.526Z,52.10
2018-05-13T23:07:10.597Z,52.40
2018-05-13T23:09:38.624Z,51.70
2018-05-13T23:12:05.932Z,51.50
2018-05-13T23:14:33.331Z,52.80
2018-05-13T23:17:01.418Z,51.70
2018-05-13T23:19:28.707Z,54.80
2018-05-13T23:21:56.819Z,58.90
2018-05-13T23:24:24.857Z,59.00
2018-05-13T23:26:52.616Z,57.90
2018-05-13T23:31:48.134Z,57.10
2018-05-13T23:34:16.155Z,58.90
2018-05-13T23:36:43.459Z,57.10
2018-05-13T23:39:11.491Z,57.00
2018-05-13T23:44:07.923Z,57.40
2018-05-13T23:46:36.179Z,55.70
2018-05-13T23:49:03.490Z,54.50
2018-05-13T23:51:31.561Z,55.60
2018-05-13T23:56:27.094Z,56.30
2018-05-13T23:58:55.149Z,55.50
